sensor_id;sensor_type;location;lat;lon;timestamp;pressure;altitude;pressure_sealevel;temperature;humidity
39363;BME280;25088;43.238;23.110;2023-04-05T00:00:24;96047.78;;;4.57;100.00
39363;BME280;25088;43.238;23.110;2023-04-05T00:02:50;96048.41;;;4.59;100.00
39363;BME280;25088;43.238;23.110;2023-04-05T00:05:17;96035.94;;;4.58;100.00
39363;BME280;25088;43.238;23.110;2023-04-05T00:07:53;96029.56;;;4.52;100.00
39363;BME280;25088;43.238;23.110;2023-04-05T00:10:19;96024.50;;;4.44;100.00
39363;BME280;25088;43.238;23.110;2023-04-05T00:12:45;96027.31;;;4.49;100.00
39363;BME280;25088;43.238;23.110;2023-04-05T00:15:10;96027.78;;;4.46;100.00
39363;BME280;25088;43.238;23.110;2023-04-05T00:17:36;96038.25;;;4.43;100.00
39363;BME280;25088;43.238;23.110;2023-04-05T00:20:01;96026.78;;;4.29;100.00
39363;BME280;25088;43.238;23.110;2023-04-05T00:22:30;96038.16;;;4.31;100.00
39363;BME280;25088;43.238;23.110;2023-04-05T00:25:00;96035.38;;;4.37;100.00
39363;BME280;25088;43.238;23.110;2023-04-05T00:27:26;96028.31;;;4.36;100.00
39363;BME280;25088;43.238;23.110;2023-04-05T00:29:51;96032.66;;;4.37;100.00
39363;BME280;25088;43.238;23.110;2023-04-05T00:32:17;96008.94;;;4.28;100.00
39363;BME280;25088;43.238;23.110;2023-04-05T00:34:42;96030.56;;;4.39;100.00
39363;BME280;25088;43.238;23.110;2023-04-05T00:37:07;96031.16;;;4.41;100.00
39363;BME280;25088;43.238;23.110;2023-04-05T00:39:33;96032.91;;;4.36;100.00
39363;BME280;25088;43.238;23.110;2023-04-05T00:42:01;96030.88;;;4.31;100.00
39363;BME280;25088;43.238;23.110;2023-04-05T00:44:27;96019.22;;;4.19;100.00
39363;BME280;25088;43.238;23.110;2023-04-05T00:46:54;96024.06;;;4.29;100.00
39363;BME280;25088;43.238;23.110;2023-04-05T00:49:20;96018.69;;;4.10;100.00
39363;BME280;25088;43.238;23.110;2023-04-05T00:51:46;96031.16;;;4.11;100.00
39363;BME280;25088;43.238;23.110;2023-04-05T00:54:12;96025.00;;;4.04;100.00
39363;BME280;25088;43.238;23.110;2023-04-05T00:56:39;96023.00;;;4.00;100.00
39363;BME280;25088;43.238;23.110;2023-04-05T00:59:05;96024.06;;;3.99;100.00
39363;BME280;25088;43.238;23.110;2023-04-05T01:01:31;96020.66;;;4.03;100.00
39363;BME280;25088;43.238;23.110;2023-04-05T01:04:02;96025.47;;;4.01;100.00
39363;BME280;25088;43.238;23.110;2023-04-05T01:12:18;96017.22;;;3.96;100.00
39363;BME280;25088;43.238;23.110;2023-04-05T01:14:46;96025.84;;;4.05;100.00
39363;BME280;25088;43.238;23.110;2023-04-05T01:17:12;96026.94;;;4.15;100.00
39363;BME280;25088;43.238;23.110;2023-04-05T01:19:37;96031.44;;;4.22;100.00
39363;BME280;25088;43.238;23.110;2023-04-05T01:25:37;96026.91;;;4.34;100.00
39363;BME280;25088;43.238;23.110;2023-04-05T01:31:06;96028.41;;;4.30;100.00
39363;BME280;25088;43.238;23.110;2023-04-05T01:36:16;96027.75;;;4.34;100.00
39363;BME280;25088;43.238;23.110;2023-04-05T01:38:45;96008.16;;;4.21;100.00
39363;BME280;25088;43.238;23.110;2023-04-05T01:41:13;96027.06;;;4.39;100.00
39363;BME280;25088;43.238;23.110;2023-04-05T01:43:39;96011.75;;;4.33;100.00
39363;BME280;25088;43.238;23.110;2023-04-05T01:46:04;96019.53;;;4.41;100.00
39363;BME280;25088;43.238;23.110;2023-04-05T01:48:30;96033.78;;;4.48;100.00
39363;BME280;25088;43.238;23.110;2023-04-05T01:50:55;96017.34;;;4.50;100.00
39363;BME280;25088;43.238;23.110;2023-04-05T01:53:21;96024.00;;;4.47;100.00
39363;BME280;25088;43.238;23.110;2023-04-05T01:55:46;96024.00;;;4.47;100.00
39363;BME280;25088;43.238;23.110;2023-04-05T01:58:12;96019.91;;;4.45;100.00
39363;BME280;25088;43.238;23.110;2023-04-05T02:00:37;96003.19;;;4.36;100.00
39363;BME280;25088;43.238;23.110;2023-04-05T02:03:03;95979.06;;;4.23;100.00
39363;BME280;25088;43.238;23.110;2023-04-05T02:05:28;96023.81;;;4.49;100.00
39363;BME280;25088;43.238;23.110;2023-04-05T02:07:53;96024.56;;;4.37;100.00
39363;BME280;25088;43.238;23.110;2023-04-05T02:10:20;96018.94;;;4.39;100.00
39363;BME280;25088;43.238;23.110;2023-04-05T02:12:46;96024.72;;;4.43;100.00
39363;BME280;25088;43.238;23.110;2023-04-05T02:15:11;96014.06;;;4.48;100.00
39363;BME280;25088;43.238;23.110;2023-04-05T02:17:37;96005.81;;;4.43;100.00
39363;BME280;25088;43.238;23.110;2023-04-05T02:20:11;96018.97;;;4.51;100.00
39363;BME280;25088;43.238;23.110;2023-04-05T02:22:39;96004.50;;;4.45;100.00
39363;BME280;25088;43.238;23.110;2023-04-05T02:25:07;96011.69;;;4.51;100.00
39363;BME280;25088;43.238;23.110;2023-04-05T02:27:33;96017.56;;;4.48;100.00
39363;BME280;25088;43.238;23.110;2023-04-05T02:29:59;96002.03;;;4.44;100.00
39363;BME280;25088;43.238;23.110;2023-04-05T02:32:25;96006.91;;;4.53;100.00
39363;BME280;25088;43.238;23.110;2023-04-05T02:34:50;96009.34;;;4.55;100.00
39363;BME280;25088;43.238;23.110;2023-04-05T02:37:17;96012.66;;;4.57;100.00
39363;BME280;25088;43.238;23.110;2023-04-05T02:39:43;96002.06;;;4.55;100.00
39363;BME280;25088;43.238;23.110;2023-04-05T02:42:08;96023.50;;;4.69;100.00
39363;BME280;25088;43.238;23.110;2023-04-05T02:44:34;96019.63;;;4.64;100.00
39363;BME280;25088;43.238;23.110;2023-04-05T02:46:59;96028.91;;;4.69;100.00
39363;BME280;25088;43.238;23.110;2023-04-05T02:49:25;96025.97;;;4.70;100.00
39363;BME280;25088;43.238;23.110;2023-04-05T02:51:50;96023.72;;;4.67;100.00
39363;BME280;25088;43.238;23.110;2023-04-05T02:54:16;96026.56;;;4.72;100.00
39363;BME280;25088;43.238;23.110;2023-04-05T02:56:41;96020.59;;;4.82;100.00
39363;BME280;25088;43.238;23.110;2023-04-05T02:59:07;96023.41;;;4.87;100.00
39363;BME280;25088;43.238;23.110;2023-04-05T03:01:32;96018.00;;;4.87;100.00
39363;BME280;25088;43.238;23.110;2023-04-05T03:04:01;96015.09;;;4.88;100.00
39363;BME280;25088;43.238;23.110;2023-04-05T03:06:26;96016.47;;;4.79;100.00
39363;BME280;25088;43.238;23.110;2023-04-05T03:08:52;96007.53;;;4.79;100.00
39363;BME280;25088;43.238;23.110;2023-04-05T03:11:18;96006.22;;;4.70;100.00
39363;BME280;25088;43.238;23.110;2023-04-05T03:13:43;96007.88;;;4.71;100.00
39363;BME280;25088;43.238;23.110;2023-04-05T03:16:09;96008.94;;;4.70;100.00
39363;BME280;25088;43.238;23.110;2023-04-05T03:18:35;96002.81;;;4.62;100.00
39363;BME280;25088;43.238;23.110;2023-04-05T03:21:00;96014.44;;;4.63;100.00
39363;BME280;25088;43.238;23.110;2023-04-05T03:23:29;96015.13;;;4.58;100.00
39363;BME280;25088;43.238;23.110;2023-04-05T03:28:24;96016.16;;;4.57;100.00
39363;BME280;25088;43.238;23.110;2023-04-05T03:30:50;96006.41;;;4.56;100.00
39363;BME280;25088;43.238;23.110;2023-04-05T03:33:15;96011.81;;;4.56;100.00
39363;BME280;25088;43.238;23.110;2023-04-05T03:35:41;96002.53;;;4.52;100.00
39363;BME280;25088;43.238;23.110;2023-04-05T03:38:07;96009.72;;;4.58;100.00
39363;BME280;25088;43.238;23.110;2023-04-05T03:40:32;96017.84;;;4.58;100.00
39363;BME280;25088;43.238;23.110;2023-04-05T03:42:57;96009.00;;;4.51;100.00
39363;BME280;25088;43.238;23.110;2023-04-05T03:45:23;96006.16;;;4.46;100.00
39363;BME280;25088;43.238;23.110;2023-04-05T03:47:49;96020.34;;;4.41;100.00
39363;BME280;25088;43.238;23.110;2023-04-05T03:50:14;96017.38;;;4.31;100.00
39363;BME280;25088;43.238;23.110;2023-04-05T03:52:40;96023.03;;;4.30;100.00
39363;BME280;25088;43.238;23.110;2023-04-05T03:55:06;96024.66;;;4.31;100.00
39363;BME280;25088;43.238;23.110;2023-04-05T03:57:32;96022.88;;;4.25;100.00
39363;BME280;25088;43.238;23.110;2023-04-05T03:59:58;96024.28;;;4.27;100.00
39363;BME280;25088;43.238;23.110;2023-04-05T04:02:23;96025.72;;;4.30;100.00
39363;BME280;25088;43.238;23.110;2023-04-05T04:04:49;96027.59;;;4.29;100.00
39363;BME280;25088;43.238;23.110;2023-04-05T04:07:15;96024.75;;;4.24;100.00
39363;BME280;25088;43.238;23.110;2023-04-05T04:09:41;96030.75;;;4.26;100.00
39363;BME280;25088;43.238;23.110;2023-04-05T04:12:06;96035.03;;;4.15;100.00
39363;BME280;25088;43.238;23.110;2023-04-05T04:14:34;96035.81;;;4.23;100.00
39363;BME280;25088;43.238;23.110;2023-04-05T04:16:59;96038.94;;;4.20;100.00
39363;BME280;25088;43.238;23.110;2023-04-05T04:19:25;96036.09;;;4.14;100.00
39363;BME280;25088;43.238;23.110;2023-04-05T04:21:50;96033.69;;;4.25;100.00
39363;BME280;25088;43.238;23.110;2023-04-05T04:24:17;96038.03;;;4.26;100.00
39363;BME280;25088;43.238;23.110;2023-04-05T04:26:46;96024.75;;;4.24;100.00
39363;BME280;25088;43.238;23.110;2023-04-05T04:29:12;96024.28;;;4.27;100.00
39363;BME280;25088;43.238;23.110;2023-04-05T04:31:41;96044.81;;;4.47;100.00
39363;BME280;25088;43.238;23.110;2023-04-05T04:34:11;96018.56;;;4.35;100.00
39363;BME280;25088;43.238;23.110;2023-04-05T04:36:40;96046.97;;;4.56;100.00
39363;BME280;25088;43.238;23.110;2023-04-05T04:39:07;96039.00;;;4.61;100.00
39363;BME280;25088;43.238;23.110;2023-04-05T04:41:34;96041.25;;;4.64;100.00
39363;BME280;25088;43.238;23.110;2023-04-05T04:44:01;96031.31;;;4.88;100.00
39363;BME280;25088;43.238;23.110;2023-04-05T04:46:33;96034.78;;;5.07;100.00
39363;BME280;25088;43.238;23.110;2023-04-05T04:49:06;96026.19;;;5.22;100.00
39363;BME280;25088;43.238;23.110;2023-04-05T04:51:32;96034.66;;;5.26;100.00
39363;BME280;25088;43.238;23.110;2023-04-05T04:53:58;96040.09;;;5.37;100.00
39363;BME280;25088;43.238;23.110;2023-04-05T04:56:23;96042.44;;;5.45;100.00
39363;BME280;25088;43.238;23.110;2023-04-05T04:58:49;96043.16;;;5.53;100.00
39363;BME280;25088;43.238;23.110;2023-04-05T05:01:15;96045.16;;;5.57;100.00
39363;BME280;25088;43.238;23.110;2023-04-05T05:03:41;96042.56;;;5.62;100.00
39363;BME280;25088;43.238;23.110;2023-04-05T05:06:07;96030.06;;;5.61;100.00
39363;BME280;25088;43.238;23.110;2023-04-05T05:08:33;96020.78;;;5.57;100.00
39363;BME280;25088;43.238;23.110;2023-04-05T05:10:58;96036.88;;;5.76;100.00
39363;BME280;25088;43.238;23.110;2023-04-05T05:13:24;96038.06;;;5.80;100.00
39363;BME280;25088;43.238;23.110;2023-04-05T05:15:50;96035.47;;;5.85;100.00
39363;BME280;25088;43.238;23.110;2023-04-05T05:18:15;96034.88;;;5.94;100.00
39363;BME280;25088;43.238;23.110;2023-04-05T05:20:41;96030.53;;;5.93;100.00
39363;BME280;25088;43.238;23.110;2023-04-05T05:23:07;96035.75;;;6.24;100.00
39363;BME280;25088;43.238;23.110;2023-04-05T05:25:33;96048.09;;;6.31;100.00
39363;BME280;25088;43.238;23.110;2023-04-05T05:27:58;96043.28;;;6.21;100.00
39363;BME280;25088;43.238;23.110;2023-04-05T05:30:24;96025.75;;;6.24;99.46
39363;BME280;25088;43.238;23.110;2023-04-05T05:32:50;96034.84;;;6.18;100.00
39363;BME280;25088;43.238;23.110;2023-04-05T05:35:17;96051.31;;;6.16;100.00
39363;BME280;25088;43.238;23.110;2023-04-05T05:37:42;96046.75;;;6.05;100.00
39363;BME280;25088;43.238;23.110;2023-04-05T05:40:09;96047.94;;;6.09;100.00
39363;BME280;25088;43.238;23.110;2023-04-05T05:42:38;96042.88;;;6.01;100.00
39363;BME280;25088;43.238;23.110;2023-04-05T05:45:04;96040.16;;;6.13;100.00
39363;BME280;25088;43.238;23.110;2023-04-05T05:47:30;96045.38;;;6.31;100.00
39363;BME280;25088;43.238;23.110;2023-04-05T05:49:56;96046.44;;;6.42;99.29
39363;BME280;25088;43.238;23.110;2023-04-05T05:52:22;96045.50;;;6.36;99.42
39363;BME280;25088;43.238;23.110;2023-04-05T05:54:47;96043.22;;;6.45;100.00
39363;BME280;25088;43.238;23.110;2023-04-05T05:57:13;96042.16;;;6.46;100.00
39363;BME280;25088;43.238;23.110;2023-04-05T05:59:38;96038.19;;;6.37;100.00
39363;BME280;25088;43.238;23.110;2023-04-05T06:02:06;96042.50;;;6.50;99.58
39363;BME280;25088;43.238;23.110;2023-04-05T06:04:31;96039.88;;;6.55;99.11
39363;BME280;25088;43.238;23.110;2023-04-05T06:06:58;96042.25;;;6.51;99.30
39363;BME280;25088;43.238;23.110;2023-04-05T06:09:25;96046.13;;;6.55;98.48
39363;BME280;25088;43.238;23.110;2023-04-05T06:11:51;96051.75;;;6.65;97.70
39363;BME280;25088;43.238;23.110;2023-04-05T06:14:17;96038.00;;;6.55;98.20
39363;BME280;25088;43.238;23.110;2023-04-05T06:16:42;96046.03;;;6.79;100.00
39363;BME280;25088;43.238;23.110;2023-04-05T06:19:08;96047.94;;;6.78;97.23
39363;BME280;25088;43.238;23.110;2023-04-05T06:21:33;96048.38;;;6.87;95.48
39363;BME280;25088;43.238;23.110;2023-04-05T06:23:59;96049.84;;;6.94;94.19
39363;BME280;25088;43.238;23.110;2023-04-05T06:26:24;96063.81;;;6.86;93.56
39363;BME280;25088;43.238;23.110;2023-04-05T06:28:53;96044.88;;;6.74;93.84
39363;BME280;25088;43.238;23.110;2023-04-05T06:31:24;96054.69;;;6.92;92.94
39363;BME280;25088;43.238;23.110;2023-04-05T06:33:50;96058.97;;;6.88;92.74
39363;BME280;25088;43.238;23.110;2023-04-05T06:36:15;96056.72;;;6.85;92.06
39363;BME280;25088;43.238;23.110;2023-04-05T06:38:41;96060.97;;;6.81;92.41
39363;BME280;25088;43.238;23.110;2023-04-05T06:41:06;96059.53;;;6.90;90.62
39363;BME280;25088;43.238;23.110;2023-04-05T06:43:32;96054.53;;;6.99;90.24
39363;BME280;25088;43.238;23.110;2023-04-05T06:45:58;96066.28;;;6.88;89.73
39363;BME280;25088;43.238;23.110;2023-04-05T06:48:24;96071.50;;;7.06;89.90
39363;BME280;25088;43.238;23.110;2023-04-05T06:51:00;96065.97;;;7.01;88.29
39363;BME280;25088;43.238;23.110;2023-04-05T06:53:26;96075.34;;;7.10;87.32
39363;BME280;25088;43.238;23.110;2023-04-05T06:55:56;96081.28;;;7.07;88.34
39363;BME280;25088;43.238;23.110;2023-04-05T06:58:22;96076.03;;;7.17;86.75
39363;BME280;25088;43.238;23.110;2023-04-05T07:00:51;96078.66;;;7.29;88.08
39363;BME280;25088;43.238;23.110;2023-04-05T07:03:17;96084.25;;;7.39;85.03
39363;BME280;25088;43.238;23.110;2023-04-05T07:05:56;96091.69;;;7.44;84.24
39363;BME280;25088;43.238;23.110;2023-04-05T07:08:24;96081.06;;;7.59;82.21
39363;BME280;25088;43.238;23.110;2023-04-05T07:10:50;96082.69;;;7.60;81.17
39363;BME280;25088;43.238;23.110;2023-04-05T07:13:16;96097.63;;;7.58;82.34
39363;BME280;25088;43.238;23.110;2023-04-05T07:15:43;96093.81;;;7.59;83.13
39363;BME280;25088;43.238;23.110;2023-04-05T07:18:08;96102.03;;;7.30;82.08
39363;BME280;25088;43.238;23.110;2023-04-05T07:20:34;96101.38;;;7.23;82.73
39363;BME280;25088;43.238;23.110;2023-04-05T07:23:00;96112.41;;;7.33;81.02
39363;BME280;25088;43.238;23.110;2023-04-05T07:25:25;96103.03;;;7.41;80.99
39363;BME280;25088;43.238;23.110;2023-04-05T07:27:51;96108.72;;;7.56;78.65
39363;BME280;25088;43.238;23.110;2023-04-05T07:30:17;96109.03;;;7.60;76.25
39363;BME280;25088;43.238;23.110;2023-04-05T07:32:43;96116.38;;;7.59;76.81
39363;BME280;25088;43.238;23.110;2023-04-05T07:35:08;96122.63;;;7.60;78.75
39363;BME280;25088;43.238;23.110;2023-04-05T07:37:34;96101.25;;;7.46;74.67
39363;BME280;25088;43.238;23.110;2023-04-05T07:40:00;96125.50;;;7.53;73.27
39363;BME280;25088;43.238;23.110;2023-04-05T07:42:25;96122.16;;;7.46;72.46
39363;BME280;25088;43.238;23.110;2023-04-05T07:44:52;96124.88;;;7.46;72.56
39363;BME280;25088;43.238;23.110;2023-04-05T07:47:17;96127.88;;;7.49;71.39
39363;BME280;25088;43.238;23.110;2023-04-05T07:49:43;96123.88;;;7.52;72.57
39363;BME280;25088;43.238;23.110;2023-04-05T07:52:08;96128.72;;;7.67;70.51
39363;BME280;25088;43.238;23.110;2023-04-05T07:54:35;96131.19;;;7.68;71.29
39363;BME280;25088;43.238;23.110;2023-04-05T07:57:03;96134.91;;;7.79;70.19
39363;BME280;25088;43.238;23.110;2023-04-05T07:59:29;96143.22;;;7.72;68.11
39363;BME280;25088;43.238;23.110;2023-04-05T08:01:55;96129.13;;;7.75;67.23
39363;BME280;25088;43.238;23.110;2023-04-05T08:04:20;96134.41;;;7.82;68.74
39363;BME280;25088;43.238;23.110;2023-04-05T08:06:47;96138.44;;;7.80;68.13
39363;BME280;25088;43.238;23.110;2023-04-05T08:09:12;96139.09;;;7.87;67.55
39363;BME280;25088;43.238;23.110;2023-04-05T08:11:38;96137.69;;;7.84;64.62
39363;BME280;25088;43.238;23.110;2023-04-05T08:14:04;96133.91;;;7.85;65.59
39363;BME280;25088;43.238;23.110;2023-04-05T08:16:30;96136.28;;;7.98;64.94
39363;BME280;25088;43.238;23.110;2023-04-05T08:18:55;96148.66;;;8.06;65.34
39363;BME280;25088;43.238;23.110;2023-04-05T08:21:21;96120.16;;;7.75;66.32
39363;BME280;25088;43.238;23.110;2023-04-05T08:23:47;96144.22;;;7.66;66.04
39363;BME280;25088;43.238;23.110;2023-04-05T08:26:14;96145.63;;;7.86;66.33
39363;BME280;25088;43.238;23.110;2023-04-05T08:28:40;96153.25;;;7.89;65.56
39363;BME280;25088;43.238;23.110;2023-04-05T08:31:05;96148.72;;;7.94;64.67
39363;BME280;25088;43.238;23.110;2023-04-05T08:33:31;96152.03;;;7.96;66.33
39363;BME280;25088;43.238;23.110;2023-04-05T08:35:56;96150.63;;;7.94;65.41
39363;BME280;25088;43.238;23.110;2023-04-05T08:38:22;96136.88;;;7.84;64.93
39363;BME280;25088;43.238;23.110;2023-04-05T08:40:48;96145.03;;;7.84;67.15
39363;BME280;25088;43.238;23.110;2023-04-05T08:43:22;96147.66;;;7.78;66.11
39363;BME280;25088;43.238;23.110;2023-04-05T08:45:51;96152.28;;;7.78;65.18
39363;BME280;25088;43.238;23.110;2023-04-05T08:48:18;96152.28;;;7.78;65.94
39363;BME280;25088;43.238;23.110;2023-04-05T08:50:51;96153.84;;;7.91;66.02
39363;BME280;25088;43.238;23.110;2023-04-05T08:53:17;96153.94;;;7.96;64.79
39363;BME280;25088;43.238;23.110;2023-04-05T08:55:43;96160.81;;;8.03;64.55
39363;BME280;25088;43.238;23.110;2023-04-05T08:58:13;96144.34;;;7.93;64.65
39363;BME280;25088;43.238;23.110;2023-04-05T09:00:40;96155.41;;;7.87;65.45
39363;BME280;25088;43.238;23.110;2023-04-05T09:03:07;96155.31;;;7.65;66.01
39363;BME280;25088;43.238;23.110;2023-04-05T09:05:38;96160.66;;;7.43;67.27
39363;BME280;25088;43.238;23.110;2023-04-05T09:08:04;96166.25;;;7.53;67.94
39363;BME280;25088;43.238;23.110;2023-04-05T09:10:30;96160.25;;;7.51;68.42
39363;BME280;25088;43.238;23.110;2023-04-05T09:12:56;96164.38;;;7.54;66.63
39363;BME280;25088;43.238;23.110;2023-04-05T09:15:23;96153.84;;;7.57;66.67
39363;BME280;25088;43.238;23.110;2023-04-05T09:17:52;96164.63;;;7.69;68.01
39363;BME280;25088;43.238;23.110;2023-04-05T09:20:18;96149.31;;;7.80;65.56
39363;BME280;25088;43.238;23.110;2023-04-05T09:22:45;96139.41;;;7.90;67.05
39363;BME280;25088;43.238;23.110;2023-04-05T09:25:12;96171.19;;;8.23;64.78
39363;BME280;25088;43.238;23.110;2023-04-05T09:27:59;96162.47;;;8.21;65.41
39363;BME280;25088;43.238;23.110;2023-04-05T09:30:27;96151.41;;;8.28;64.82
39363;BME280;25088;43.238;23.110;2023-04-05T09:32:54;96165.06;;;8.33;64.01
39363;BME280;25088;43.238;23.110;2023-04-05T09:35:24;96155.38;;;8.59;63.78
39363;BME280;25088;43.238;23.110;2023-04-05T09:40:21;96154.75;;;8.74;63.68
39363;BME280;25088;43.238;23.110;2023-04-05T09:42:48;96151.88;;;8.80;64.94
39363;BME280;25088;43.238;23.110;2023-04-05T09:45:14;96159.06;;;8.70;62.88
39363;BME280;25088;43.238;23.110;2023-04-05T09:47:40;96152.59;;;8.54;62.69
39363;BME280;25088;43.238;23.110;2023-04-05T09:50:19;96157.34;;;8.42;63.97
39363;BME280;25088;43.238;23.110;2023-04-05T09:52:45;96157.75;;;8.50;63.63
39363;BME280;25088;43.238;23.110;2023-04-05T09:55:11;96158.28;;;8.52;65.57
39363;BME280;25088;43.238;23.110;2023-04-05T09:57:38;96165.50;;;8.42;65.25
39363;BME280;25088;43.238;23.110;2023-04-05T10:00:05;96167.50;;;8.13;67.28
39363;BME280;25088;43.238;23.110;2023-04-05T10:02:35;96162.31;;;8.11;68.29
39363;BME280;25088;43.238;23.110;2023-04-05T10:05:07;96171.44;;;8.05;67.22
39363;BME280;25088;43.238;23.110;2023-04-05T10:07:36;96166.94;;;7.94;68.01
39363;BME280;25088;43.238;23.110;2023-04-05T10:10:03;96155.22;;;7.93;68.08
39363;BME280;25088;43.238;23.110;2023-04-05T10:12:31;96165.19;;;8.04;67.58
39363;BME280;25088;43.238;23.110;2023-04-05T10:14:57;96168.38;;;8.18;66.98
39363;BME280;25088;43.238;23.110;2023-04-05T10:20:18;96157.84;;;8.39;68.10
39363;BME280;25088;43.238;23.110;2023-04-05T10:22:58;96166.25;;;8.37;65.82
39363;BME280;25088;43.238;23.110;2023-04-05T10:25:39;96168.34;;;8.35;67.78
39363;BME280;25088;43.238;23.110;2023-04-05T10:28:31;96166.06;;;8.27;69.98
39363;BME280;25088;43.238;23.110;2023-04-05T10:31:11;96169.03;;;8.42;69.88
39363;BME280;25088;43.238;23.110;2023-04-05T10:33:44;96177.91;;;8.54;68.01
39363;BME280;25088;43.238;23.110;2023-04-05T10:36:36;96170.72;;;8.65;67.47
39363;BME280;25088;43.238;23.110;2023-04-05T10:39:11;96176.00;;;8.55;67.47
39363;BME280;25088;43.238;23.110;2023-04-05T10:41:46;96175.56;;;8.63;71.30
39363;BME280;25088;43.238;23.110;2023-04-05T10:44:13;96175.22;;;8.76;67.28
39363;BME280;25088;43.238;23.110;2023-04-05T10:46:40;96179.84;;;8.76;67.37
39363;BME280;25088;43.238;23.110;2023-04-05T10:51:50;96170.88;;;8.59;67.38
39363;BME280;25088;43.238;23.110;2023-04-05T10:54:18;96176.13;;;8.26;71.17
39363;BME280;25088;43.238;23.110;2023-04-05T10:56:44;96185.75;;;8.34;75.27
39363;BME280;25088;43.238;23.110;2023-04-05T10:59:11;96180.63;;;8.54;76.00
39363;BME280;25088;43.238;23.110;2023-04-05T11:01:38;96179.19;;;8.47;69.93
39363;BME280;25088;43.238;23.110;2023-04-05T11:04:14;96177.03;;;8.32;70.62
39363;BME280;25088;43.238;23.110;2023-04-05T11:06:40;96170.47;;;8.11;71.67
39363;BME280;25088;43.238;23.110;2023-04-05T11:09:17;96181.50;;;8.04;84.36
39363;BME280;25088;43.238;23.110;2023-04-05T11:11:49;96172.53;;;8.04;79.60
39363;BME280;25088;43.238;23.110;2023-04-05T11:14:26;96178.09;;;8.14;84.34
39363;BME280;25088;43.238;23.110;2023-04-05T11:16:59;96167.56;;;8.18;82.39
39363;BME280;25088;43.238;23.110;2023-04-05T11:19:47;96171.44;;;8.22;77.39
39363;BME280;25088;43.238;23.110;2023-04-05T11:22:23;96171.78;;;8.25;82.00
39363;BME280;25088;43.238;23.110;2023-04-05T11:24:51;96177.28;;;8.31;80.40
39363;BME280;25088;43.238;23.110;2023-04-05T11:27:27;96152.72;;;8.42;82.97
39363;BME280;25088;43.238;23.110;2023-04-05T11:29:54;96168.56;;;8.45;74.42
39363;BME280;25088;43.238;23.110;2023-04-05T11:32:20;96168.09;;;8.53;74.90
39363;BME280;25088;43.238;23.110;2023-04-05T11:35:18;96176.84;;;8.56;75.33
39363;BME280;25088;43.238;23.110;2023-04-05T11:38:06;96171.16;;;8.40;82.40
39363;BME280;25088;43.238;23.110;2023-04-05T11:40:33;96182.66;;;8.25;71.14
39363;BME280;25088;43.238;23.110;2023-04-05T11:43:07;96184.81;;;8.07;70.49
39363;BME280;25088;43.238;23.110;2023-04-05T11:45:36;96181.91;;;8.13;70.42
39363;BME280;25088;43.238;23.110;2023-04-05T11:48:06;96183.25;;;8.11;70.93
39363;BME280;25088;43.238;23.110;2023-04-05T11:50:32;96184.97;;;8.00;70.32
39363;BME280;25088;43.238;23.110;2023-04-05T11:53:09;96194.63;;;7.91;72.62
39363;BME280;25088;43.238;23.110;2023-04-05T11:55:42;96185.88;;;7.89;72.52
39363;BME280;25088;43.238;23.110;2023-04-05T12:00:45;96186.28;;;7.97;87.49
39363;BME280;25088;43.238;23.110;2023-04-05T12:03:13;96193.19;;;8.05;75.93
39363;BME280;25088;43.238;23.110;2023-04-05T12:06:05;96192.81;;;7.96;76.33
39363;BME280;25088;43.238;23.110;2023-04-05T12:11:01;96187.03;;;7.93;73.12
39363;BME280;25088;43.238;23.110;2023-04-05T12:13:28;96194.69;;;7.96;69.82
39363;BME280;25088;43.238;23.110;2023-04-05T12:15:58;96175.22;;;7.70;70.26
39363;BME280;25088;43.238;23.110;2023-04-05T12:18:25;96205.53;;;7.62;71.58
39363;BME280;25088;43.238;23.110;2023-04-05T12:20:52;96203.66;;;7.63;71.62
39363;BME280;25088;43.238;23.110;2023-04-05T12:23:18;96193.00;;;7.44;73.30
39363;BME280;25088;43.238;23.110;2023-04-05T12:25:47;96211.63;;;7.53;74.96
39363;BME280;25088;43.238;23.110;2023-04-05T12:28:13;96208.16;;;7.57;74.54
39363;BME280;25088;43.238;23.110;2023-04-05T12:30:51;96205.72;;;7.27;74.51
39363;BME280;25088;43.238;23.110;2023-04-05T12:33:31;96202.56;;;7.18;74.37
39363;BME280;25088;43.238;23.110;2023-04-05T12:35:58;96208.97;;;7.00;75.10
39363;BME280;25088;43.238;23.110;2023-04-05T12:38:27;96208.75;;;7.02;75.21
39363;BME280;25088;43.238;23.110;2023-04-05T12:40:54;96209.50;;;6.86;75.98
39363;BME280;25088;43.238;23.110;2023-04-05T12:43:23;96211.88;;;6.82;78.76
39363;BME280;25088;43.238;23.110;2023-04-05T12:45:52;96211.16;;;6.75;78.48
39363;BME280;25088;43.238;23.110;2023-04-05T12:48:22;96206.72;;;6.69;79.00
39363;BME280;25088;43.238;23.110;2023-04-05T12:50:50;96218.50;;;6.74;77.96
39363;BME280;25088;43.238;23.110;2023-04-05T12:53:23;96198.50;;;6.52;77.70
39363;BME280;25088;43.238;23.110;2023-04-05T12:55:53;96209.22;;;6.35;79.49
39363;BME280;25088;43.238;23.110;2023-04-05T12:58:20;96213.13;;;6.28;81.01
39363;BME280;25088;43.238;23.110;2023-04-05T13:00:46;96211.00;;;6.30;80.96
39363;BME280;25088;43.238;23.110;2023-04-05T13:03:20;96199.69;;;6.33;80.77
39363;BME280;25088;43.238;23.110;2023-04-05T13:05:48;96202.97;;;6.35;79.37
39363;BME280;25088;43.238;23.110;2023-04-05T13:08:15;96209.13;;;6.30;81.60
39363;BME280;25088;43.238;23.110;2023-04-05T13:10:43;96210.75;;;6.31;83.09
39363;BME280;25088;43.238;23.110;2023-04-05T13:13:09;96199.34;;;6.29;81.49
39363;BME280;25088;43.238;23.110;2023-04-05T13:15:35;96196.97;;;6.33;82.09
39363;BME280;25088;43.238;23.110;2023-04-05T13:18:00;96197.44;;;6.41;83.10
39363;BME280;25088;43.238;23.110;2023-04-05T13:20:26;96203.34;;;6.38;85.67
39363;BME280;25088;43.238;23.110;2023-04-05T13:22:51;96204.63;;;6.36;86.31
39363;BME280;25088;43.238;23.110;2023-04-05T13:25:17;96199.44;;;6.34;85.32
39363;BME280;25088;43.238;23.110;2023-04-05T13:27:42;96204.06;;;6.34;84.65